createdAt,value
2022-07-25T00:01:47.513Z,17.67
2022-07-25T00:04:14.860Z,17.66
2022-07-25T00:06:42.775Z,17.66
2022-07-25T00:09:09.929Z,17.59
2022-07-25T00:11:37.064Z,17.53
2022-07-25T00:14:05.648Z,17.48
2022-07-25T00:16:33.053Z,17.46
2022-07-25T00:18:59.944Z,17.39
2022-07-25T00:21:26.876Z,17.35
2022-07-25T00:23:53.770Z,17.36
2022-07-25T00:26:20.591Z,17.37
2022-07-25T00:28:47.333Z,17.37
2022-07-25T00:31:14.229Z,17.35
2022-07-25T00:33:41.319Z,17.33
2022-07-25T00:36:09.243Z,17.39
2022-07-25T00:38:36.362Z,17.34
2022-07-25T00:41:04.859Z,17.31
2022-07-25T00:43:32.474Z,17.30
2022-07-25T00:45:59.783Z,17.24
2022-07-25T00:48:29.041Z,17.18
2022-07-25T00:50:56.717Z,17.15
2022-07-25T00:53:24.168Z,17.12
2022-07-25T00:55:51.842Z,17.05
2022-07-25T00:58:19.061Z,17.02
2022-07-25T01:00:46.566Z,16.93
2022-07-25T01:03:13.615Z,16.92
2022-07-25T01:05:40.559Z,16.90
2022-07-25T01:08:07.947Z,16.89
2022-07-25T01:10:35.221Z,17.01
2022-07-25T01:13:02.679Z,16.98
2022-07-25T01:15:29.751Z,16.98
2022-07-25T01:17:56.674Z,16.85
2022-07-25T01:20:25.514Z,16.83
2022-07-25T01:22:53.602Z,16.80
2022-07-25T01:25:21.143Z,16.72
2022-07-25T01:27:52.920Z,16.75
2022-07-25T01:30:23.431Z,16.71
2022-07-25T01:32:50.472Z,16.67
2022-07-25T01:35:17.353Z,16.70
2022-07-25T01:37:45.756Z,16.64
2022-07-25T01:40:14.029Z,16.68
2022-07-25T01:42:41.580Z,16.63
2022-07-25T01:45:09.011Z,16.60
2022-07-25T01:47:35.911Z,16.64
2022-07-25T01:50:02.773Z,16.66
2022-07-25T01:52:29.622Z,16.66
2022-07-25T01:54:56.676Z,16.64
2022-07-25T01:57:26.622Z,16.65
2022-07-25T01:59:58.502Z,16.66
2022-07-25T02:02:25.508Z,16.61
2022-07-25T02:04:52.324Z,16.56
2022-07-25T02:07:19.174Z,16.55
2022-07-25T02:09:46.037Z,16.59
2022-07-25T02:12:13.020Z,16.61
2022-07-25T02:14:39.962Z,16.59
2022-07-25T02:17:06.892Z,16.57
2022-07-25T02:19:34.400Z,16.58
2022-07-25T02:22:01.358Z,16.63
2022-07-25T02:24:28.270Z,16.67
2022-07-25T02:26:55.105Z,16.68
2022-07-25T02:29:22.258Z,16.67
2022-07-25T02:31:49.203Z,16.68
2022-07-25T02:34:15.998Z,16.72
2022-07-25T02:36:43.050Z,16.71
2022-07-25T02:39:10.053Z,16.66
2022-07-25T02:41:37.024Z,16.68
2022-07-25T02:44:04.962Z,16.64
2022-07-25T02:46:32.190Z,16.69
2022-07-25T02:48:59.313Z,16.70
2022-07-25T02:51:26.456Z,16.69
2022-07-25T02:53:58.265Z,16.70
2022-07-25T02:56:26.923Z,16.70
2022-07-25T02:58:57.474Z,16.67
2022-07-25T03:01:24.378Z,16.70
2022-07-25T03:03:51.219Z,16.74
2022-07-25T03:06:18.346Z,16.75
2022-07-25T03:08:45.100Z,16.74
2022-07-25T03:11:12.805Z,16.77
2022-07-25T03:13:39.542Z,16.89
2022-07-25T03:16:06.980Z,17.01
2022-07-25T03:18:33.753Z,16.99
2022-07-25T03:21:00.674Z,17.06
2022-07-25T03:23:28.506Z,17.08
2022-07-25T03:25:56.178Z,17.07
2022-07-25T03:28:24.823Z,17.06
2022-07-25T03:30:52.698Z,17.04
2022-07-25T03:33:20.638Z,17.11
2022-07-25T03:35:47.491Z,17.13
2022-07-25T03:38:14.519Z,17.30
2022-07-25T03:40:41.477Z,17.28
2022-07-25T03:43:08.293Z,17.48
2022-07-25T03:45:35.349Z,17.40
2022-07-25T03:48:02.498Z,17.54
2022-07-25T03:50:29.392Z,17.54
2022-07-25T03:52:56.470Z,17.73
2022-07-25T03:55:23.253Z,17.88
2022-07-25T03:57:50.705Z,17.91
2022-07-25T04:00:18.183Z,17.99
2022-07-25T04:02:45.076Z,18.04
2022-07-25T04:05:12.045Z,18.15
2022-07-25T04:07:39.083Z,18.27
2022-07-25T04:10:07.560Z,18.36
2022-07-25T04:12:34.682Z,18.49
2022-07-25T04:15:01.574Z,18.48
2022-07-25T04:17:28.505Z,18.68
2022-07-25T04:19:55.657Z,18.60
2022-07-25T04:22:23.514Z,18.78
2022-07-25T04:24:50.383Z,18.82
2022-07-25T04:27:17.073Z,18.97
2022-07-25T04:29:43.830Z,18.93
2022-07-25T04:32:10.639Z,18.97
2022-07-25T04:34:37.419Z,19.10
2022-07-25T04:37:04.140Z,19.05
2022-07-25T04:39:30.803Z,19.05
2022-07-25T04:41:57.595Z,19.12
2022-07-25T04:44:24.544Z,19.15
2022-07-25T04:46:51.407Z,19.35
2022-07-25T04:49:18.247Z,19.44
2022-07-25T04:51:47.849Z,19.50
2022-07-25T04:54:14.615Z,19.49
2022-07-25T04:56:41.487Z,19.66
2022-07-25T04:59:08.292Z,19.70
2022-07-25T05:01:35.503Z,19.72
2022-07-25T05:04:02.498Z,19.85
2022-07-25T05:06:29.278Z,19.85
2022-07-25T05:08:56.134Z,19.94
2022-07-25T05:11:22.972Z,19.99
2022-07-25T05:13:49.997Z,20.12
2022-07-25T05:16:16.945Z,20.45
2022-07-25T05:18:44.013Z,20.47
2022-07-25T05:21:12.579Z,20.59
2022-07-25T05:23:39.707Z,20.88
2022-07-25T05:26:06.497Z,21.01
2022-07-25T05:28:33.329Z,21.05
2022-07-25T05:31:00.075Z,21.13
2022-07-25T05:33:26.890Z,21.33
2022-07-25T05:35:54.189Z,21.28
2022-07-25T05:38:21.025Z,21.16
2022-07-25T05:40:48.260Z,21.46
2022-07-25T05:43:14.994Z,21.56
2022-07-25T05:45:41.738Z,21.61
2022-07-25T05:48:08.603Z,21.84
2022-07-25T05:50:37.366Z,22.03
2022-07-25T05:53:04.111Z,22.06
2022-07-25T05:55:30.965Z,22.28
2022-07-25T05:57:57.961Z,22.35
2022-07-25T06:00:25.164Z,22.35
2022-07-25T06:02:52.378Z,22.36
2022-07-25T06:05:19.079Z,22.49
2022-07-25T06:07:45.705Z,22.50
2022-07-25T06:10:12.390Z,22.84
2022-07-25T06:12:39.032Z,22.94
2022-07-25T06:15:07.921Z,23.10
2022-07-25T06:17:39.269Z,23.21
2022-07-25T06:20:06.477Z,23.34
2022-07-25T06:22:33.264Z,23.45
2022-07-25T06:25:02.963Z,23.48
2022-07-25T06:27:29.686Z,23.79
2022-07-25T06:29:56.661Z,24.02
2022-07-25T06:32:24.921Z,23.91
2022-07-25T06:34:51.848Z,24.04
2022-07-25T06:37:18.529Z,24.05
2022-07-25T06:39:46.073Z,24.00
2022-07-25T06:42:13.475Z,24.25
2022-07-25T06:44:40.285Z,24.32
2022-07-25T06:47:12.801Z,24.54
2022-07-25T06:49:40.612Z,24.67
2022-07-25T06:52:07.827Z,24.65
2022-07-25T06:54:35.173Z,24.85
2022-07-25T06:57:01.854Z,24.92
2022-07-25T06:59:28.719Z,24.89
2022-07-25T07:01:55.612Z,24.91
2022-07-25T07:04:22.303Z,24.98
2022-07-25T07:06:48.882Z,24.98
2022-07-25T07:09:15.649Z,24.96
2022-07-25T07:11:42.304Z,24.93
2022-07-25T07:14:09.630Z,24.99
2022-07-25T07:16:36.837Z,25.05
2022-07-25T07:19:04.477Z,25.19
2022-07-25T07:21:32.702Z,25.31
2022-07-25T07:23:59.413Z,25.41
2022-07-25T07:26:26.039Z,25.42
2022-07-25T07:28:54.798Z,25.41
2022-07-25T07:31:21.647Z,25.49
2022-07-25T07:33:48.419Z,25.57
2022-07-25T07:36:15.130Z,25.52
2022-07-25T07:38:42.074Z,25.76
2022-07-25T07:41:08.678Z,25.72
2022-07-25T07:43:35.997Z,26.02
2022-07-25T07:46:03.075Z,25.93
2022-07-25T07:48:31.058Z,26.01
2022-07-25T07:50:58.890Z,26.10
2022-07-25T07:53:44.576Z,26.19
2022-07-25T07:56:12.265Z,26.14
2022-07-25T07:58:39.226Z,26.39
2022-07-25T08:01:08.439Z,26.59
2022-07-25T08:03:36.546Z,26.89
2022-07-25T08:06:04.513Z,26.99
2022-07-25T08:08:31.897Z,27.03
2022-07-25T08:10:59.565Z,27.05
2022-07-25T08:13:30.287Z,27.18
2022-07-25T08:15:59.538Z,27.38
2022-07-25T08:18:27.596Z,27.56
2022-07-25T08:20:54.785Z,27.71
2022-07-25T08:23:22.423Z,28.10
2022-07-25T08:25:49.663Z,28.19
2022-07-25T08:28:16.407Z,27.97
2022-07-25T08:30:43.696Z,28.05
2022-07-25T08:33:13.693Z,28.10
2022-07-25T08:35:42.059Z,28.28
2022-07-25T08:38:11.792Z,28.13
2022-07-25T08:40:38.761Z,28.10
2022-07-25T08:43:06.117Z,28.12
2022-07-25T08:45:33.402Z,27.80
2022-07-25T08:48:00.158Z,27.83
2022-07-25T08:50:29.590Z,27.60
2022-07-25T08:53:29.907Z,27.54
2022-07-25T08:55:45.886Z,27.66
2022-07-25T08:58:16.389Z,27.79
2022-07-25T09:00:43.626Z,28.19
2022-07-25T09:03:10.935Z,28.48
2022-07-25T09:05:44.871Z,28.47
2022-07-25T09:08:14.236Z,28.50
2022-07-25T09:10:47.604Z,28.80
2022-07-25T09:13:18.877Z,28.66
2022-07-25T09:15:47.636Z,28.79
2022-07-25T09:18:19.628Z,28.55
2022-07-25T09:20:49.177Z,28.67
2022-07-25T09:23:34.934Z,28.60
2022-07-25T09:26:13.120Z,28.62
2022-07-25T09:28:48.489Z,28.71
2022-07-25T09:31:17.035Z,28.96
2022-07-25T09:33:56.539Z,29.16
2022-07-25T09:36:24.300Z,29.26
2022-07-25T09:39:01.343Z,29.34
2022-07-25T09:41:39.483Z,29.40
2022-07-25T09:44:20.253Z,29.26
2022-07-25T09:46:47.754Z,29.27
2022-07-25T09:49:14.929Z,29.43
2022-07-25T09:51:42.945Z,29.46
2022-07-25T09:54:10.351Z,29.56
2022-07-25T09:56:37.296Z,29.58
2022-07-25T09:59:04.650Z,29.63
2022-07-25T10:01:51.318Z,29.57
2022-07-25T10:04:24.439Z,29.46
2022-07-25T10:06:56.512Z,29.47
2022-07-25T10:09:23.492Z,29.53
2022-07-25T10:12:07.720Z,29.31
2022-07-25T10:14:35.989Z,29.60
2022-07-25T10:17:02.958Z,29.64
2022-07-25T10:22:57.786Z,29.75
2022-07-25T10:25:25.346Z,29.93
2022-07-25T10:28:04.113Z,29.69
2022-07-25T10:30:39.598Z,29.72
2022-07-25T10:33:18.422Z,29.81
2022-07-25T10:35:45.766Z,29.82
2022-07-25T10:38:12.700Z,29.94
2022-07-25T10:40:43.572Z,29.85
2022-07-25T10:43:22.356Z,29.97
2022-07-25T10:45:52.142Z,30.29
2022-07-25T10:48:32.990Z,30.62
2022-07-25T10:51:06.049Z,30.97
2022-07-25T10:53:39.264Z,31.06
2022-07-25T10:56:08.818Z,31.06
2022-07-25T10:58:50.942Z,31.07
2022-07-25T11:01:26.773Z,31.01
2022-07-25T11:03:56.557Z,31.11
2022-07-25T11:06:38.959Z,30.99
2022-07-25T11:09:24.953Z,31.03
2022-07-25T11:11:58.443Z,31.15
2022-07-25T11:14:33.514Z,31.37
2022-07-25T11:17:15.895Z,31.28
2022-07-25T11:19:44.516Z,31.24
2022-07-25T11:22:11.564Z,31.15
2022-07-25T11:24:44.139Z,31.39
2022-07-25T11:27:22.747Z,31.30
2022-07-25T11:29:49.786Z,31.27
2022-07-25T11:32:16.584Z,31.52
2022-07-25T11:34:54.216Z,31.65
2022-07-25T11:37:21.612Z,31.52
2022-07-25T11:39:48.910Z,31.59
2022-07-25T11:42:18.565Z,31.64
2022-07-25T11:44:49.230Z,32.05
2022-07-25T11:47:31.026Z,31.90
2022-07-25T11:50:03.798Z,31.76
2022-07-25T11:52:32.963Z,31.90
2022-07-25T11:55:05.815Z,32.01
2022-07-25T11:57:38.572Z,32.13
2022-07-25T12:00:11.737Z,32.11
2022-07-25T12:02:38.934Z,32.11
2022-07-25T12:05:07.553Z,32.14
2022-07-25T12:07:47.330Z,32.11
2022-07-25T12:10:22.463Z,32.10
2022-07-25T12:12:55.822Z,31.95
2022-07-25T12:15:29.081Z,31.88
2022-07-25T12:17:57.815Z,31.81
2022-07-25T12:20:27.277Z,32.07
2022-07-25T12:22:56.499Z,32.23
2022-07-25T12:25:28.909Z,32.40
2022-07-25T12:27:59.022Z,32.38
2022-07-25T12:30:27.816Z,32.24
2022-07-25T12:32:55.012Z,31.99
2022-07-25T12:35:22.000Z,31.75
2022-07-25T12:37:48.959Z,31.55
2022-07-25T12:40:17.195Z,31.17
2022-07-25T12:42:44.942Z,30.87
2022-07-25T12:45:12.761Z,30.74
2022-07-25T12:47:39.959Z,30.47
2022-07-25T12:50:07.152Z,30.11
2022-07-25T12:52:34.266Z,30.17
2022-07-25T12:55:01.001Z,29.77
2022-07-25T12:57:27.942Z,29.62
2022-07-25T12:59:54.670Z,29.58
2022-07-25T13:02:21.462Z,29.45
2022-07-25T13:04:49.243Z,29.63
2022-07-25T13:07:16.538Z,29.50
2022-07-25T13:09:43.570Z,29.57
2022-07-25T13:12:12.337Z,29.53
2022-07-25T13:14:43.161Z,29.58
2022-07-25T13:17:10.990Z,29.22
2022-07-25T13:19:37.845Z,29.11
2022-07-25T13:22:04.573Z,29.15
2022-07-25T13:24:31.532Z,29.12
2022-07-25T13:26:58.306Z,29.36
2022-07-25T13:29:25.078Z,29.35
2022-07-25T13:31:52.275Z,29.17
2022-07-25T13:34:18.958Z,29.30
2022-07-25T13:36:46.513Z,29.31
2022-07-25T13:39:13.169Z,28.62
2022-07-25T13:41:39.933Z,27.95
2022-07-25T13:44:06.676Z,27.72
2022-07-25T13:46:34.210Z,27.27
2022-07-25T13:49:01.140Z,26.83
2022-07-25T13:51:27.910Z,26.35
2022-07-25T13:53:54.663Z,26.46
2022-07-25T13:56:21.384Z,26.29
2022-07-25T13:58:48.435Z,26.05
2022-07-25T14:01:15.664Z,26.14
2022-07-25T14:03:45.981Z,25.75
2022-07-25T14:06:12.782Z,25.61
2022-07-25T14:08:40.583Z,25.63
2022-07-25T14:11:08.561Z,25.38
2022-07-25T14:13:36.510Z,25.21
2022-07-25T14:16:03.654Z,24.65
2022-07-25T14:18:32.142Z,24.41
2022-07-25T14:20:59.741Z,24.38
2022-07-25T14:23:29.878Z,24.46
2022-07-25T14:25:58.662Z,24.13
2022-07-25T14:28:25.754Z,24.05
2022-07-25T14:30:52.649Z,23.59
2022-07-25T14:33:19.662Z,23.74
2022-07-25T14:35:46.366Z,23.47
2022-07-25T14:38:13.102Z,23.41
2022-07-25T14:40:42.151Z,23.27
2022-07-25T14:43:08.787Z,23.37
2022-07-25T14:45:37.194Z,23.25
2022-07-25T14:48:07.036Z,22.96
2022-07-25T14:50:33.769Z,22.89
2022-07-25T14:53:00.559Z,22.45
2022-07-25T14:55:27.494Z,22.24
2022-07-25T14:57:54.244Z,22.04
2022-07-25T15:00:24.891Z,22.14
2022-07-25T15:02:54.554Z,21.87
2022-07-25T15:05:21.786Z,21.75
2022-07-25T15:07:48.754Z,21.92
2022-07-25T15:10:15.553Z,21.52
2022-07-25T15:12:42.185Z,21.66
2022-07-25T15:15:09.283Z,21.51
2022-07-25T15:17:36.113Z,21.38
2022-07-25T15:20:03.535Z,21.02
2022-07-25T15:22:30.599Z,20.77
2022-07-25T15:25:28.636Z,20.84
2022-07-25T15:27:44.510Z,20.50
2022-07-25T15:30:11.848Z,20.69
2022-07-25T15:32:40.242Z,20.08
2022-07-25T15:35:07.789Z,20.17
2022-07-25T15:37:34.505Z,20.18
2022-07-25T15:40:01.447Z,20.39
2022-07-25T15:42:29.549Z,20.31
2022-07-25T15:45:29.803Z,20.50
2022-07-25T15:47:47.517Z,20.74
2022-07-25T15:50:18.327Z,20.85
2022-07-25T15:52:44.907Z,20.91
2022-07-25T15:55:11.610Z,21.08
2022-07-25T15:57:38.355Z,21.24
2022-07-25T16:00:08.221Z,21.24
2022-07-25T16:02:35.594Z,21.01
2022-07-25T16:05:03.771Z,21.13
2022-07-25T16:07:30.422Z,21.28
2022-07-25T16:09:57.292Z,21.03
2022-07-25T16:12:28.369Z,21.19
2022-07-25T16:14:55.769Z,21.10
2022-07-25T16:17:22.704Z,20.97
2022-07-25T16:19:49.542Z,20.65
2022-07-25T16:22:16.235Z,20.56
2022-07-25T16:24:43.008Z,20.65
2022-07-25T16:27:10.080Z,20.58
2022-07-25T16:29:37.296Z,20.75
2022-07-25T16:32:04.677Z,20.62
2022-07-25T16:34:32.072Z,20.74
2022-07-25T16:36:59.111Z,20.76
2022-07-25T16:39:25.865Z,20.90
2022-07-25T16:41:52.560Z,20.86
2022-07-25T16:44:19.188Z,20.95
2022-07-25T16:49:15.444Z,20.91
2022-07-25T16:51:43.823Z,20.88
2022-07-25T16:54:11.006Z,20.91
2022-07-25T16:59:06.740Z,20.91
2022-07-25T17:01:35.137Z,20.73
2022-07-25T17:04:01.828Z,20.69
2022-07-25T17:06:28.633Z,20.67
2022-07-25T17:08:55.281Z,20.58
2022-07-25T17:11:22.664Z,20.58
2022-07-25T17:13:49.393Z,20.61
2022-07-25T17:16:16.359Z,20.63
2022-07-25T17:18:43.140Z,20.60
2022-07-25T17:21:10.674Z,20.48
2022-07-25T17:23:37.536Z,20.50
2022-07-25T17:26:05.538Z,20.42
2022-07-25T17:28:32.832Z,20.56
2022-07-25T17:30:59.787Z,20.55
2022-07-25T17:33:26.925Z,20.46
2022-07-25T17:35:54.156Z,20.43
2022-07-25T17:38:26.269Z,20.36
2022-07-25T17:40:53.889Z,20.34
2022-07-25T17:43:20.762Z,20.41
2022-07-25T17:45:48.068Z,20.28
2022-07-25T17:48:15.841Z,20.06
2022-07-25T17:50:42.706Z,20.08
2022-07-25T17:53:09.519Z,20.20
2022-07-25T17:55:39.019Z,20.19
2022-07-25T17:58:06.385Z,20.24
2022-07-25T18:00:33.465Z,20.02
2022-07-25T18:03:00.665Z,19.81
2022-07-25T18:05:27.923Z,19.93
2022-07-25T18:07:54.669Z,19.86
2022-07-25T18:10:22.214Z,19.77
2022-07-25T18:12:50.230Z,19.81
2022-07-25T18:15:17.743Z,19.77
2022-07-25T18:17:46.150Z,19.76
2022-07-25T18:20:14.735Z,19.78
2022-07-25T18:22:41.925Z,19.86
2022-07-25T18:25:11.690Z,19.97
2022-07-25T18:27:44.553Z,19.81
2022-07-25T18:30:12.729Z,19.96
2022-07-25T18:32:40.253Z,20.02
2022-07-25T18:35:08.136Z,20.11
2022-07-25T18:37:37.234Z,20.09
2022-07-25T18:40:08.464Z,19.95
2022-07-25T18:42:36.452Z,20.08
2022-07-25T18:45:05.137Z,19.97
2022-07-25T18:47:35.359Z,19.83
2022-07-25T18:50:03.601Z,19.98
2022-07-25T18:52:38.922Z,19.87
2022-07-25T18:55:08.152Z,19.94
2022-07-25T18:57:35.919Z,19.76
2022-07-25T19:00:03.853Z,19.76
2022-07-25T19:02:31.035Z,19.64
2022-07-25T19:04:58.312Z,19.58
2022-07-25T19:07:26.186Z,19.48
2022-07-25T19:09:53.209Z,19.33
2022-07-25T19:12:20.383Z,19.45
2022-07-25T19:14:47.233Z,19.47
2022-07-25T19:17:14.112Z,19.45
2022-07-25T19:19:42.018Z,19.58
2022-07-25T19:22:11.667Z,19.37
2022-07-25T19:24:38.900Z,19.18
2022-07-25T19:27:06.133Z,19.22
2022-07-25T19:29:37.340Z,19.14
2022-07-25T19:32:04.858Z,19.15
2022-07-25T19:34:36.503Z,19.11
2022-07-25T19:37:03.836Z,19.08
2022-07-25T19:39:31.367Z,18.88
2022-07-25T19:41:58.615Z,18.97
2022-07-25T19:44:26.845Z,18.97
2022-07-25T19:46:57.540Z,18.79
2022-07-25T19:49:24.705Z,18.79
2022-07-25T19:51:51.678Z,18.62
2022-07-25T19:54:21.293Z,18.44
2022-07-25T19:56:48.208Z,18.42
2022-07-25T19:59:15.752Z,18.27
2022-07-25T20:01:43.436Z,18.11
2022-07-25T20:04:16.651Z,18.16
2022-07-25T20:06:44.451Z,18.18
2022-07-25T20:09:11.720Z,18.01
2022-07-25T20:11:38.939Z,17.91
2022-07-25T20:14:07.761Z,17.81
2022-07-25T20:16:37.571Z,17.90
2022-07-25T20:19:12.396Z,17.85
2022-07-25T20:21:40.518Z,17.79
2022-07-25T20:24:08.277Z,17.81
2022-07-25T20:26:36.080Z,17.79
2022-07-25T20:29:03.185Z,17.78
2022-07-25T20:31:30.328Z,17.81
2022-07-25T20:33:57.817Z,17.70
2022-07-25T20:36:24.882Z,17.65
2022-07-25T20:38:54.821Z,17.63
2022-07-25T20:41:24.070Z,17.58
2022-07-25T20:43:52.453Z,17.55
2022-07-25T20:46:19.588Z,17.52
2022-07-25T20:48:57.074Z,17.50
2022-07-25T20:51:28.688Z,17.42
2022-07-25T20:53:56.529Z,17.33
2022-07-25T20:56:26.950Z,17.28
2022-07-25T20:59:06.504Z,17.21
2022-07-25T21:01:34.245Z,17.33
2022-07-25T21:04:09.977Z,17.28
2022-07-25T21:06:39.824Z,17.10
2022-07-25T21:09:08.926Z,17.11
2022-07-25T21:11:36.957Z,17.11
2022-07-25T21:14:05.628Z,17.14
2022-07-25T21:16:36.649Z,17.11
2022-07-25T21:19:03.784Z,17.06
2022-07-25T21:21:31.772Z,17.00
2022-07-25T21:23:59.069Z,16.89
2022-07-25T21:26:26.096Z,16.79
2022-07-25T21:28:53.707Z,16.87
2022-07-25T21:31:21.034Z,16.79
2022-07-25T21:33:48.815Z,16.73
2022-07-25T21:36:16.062Z,16.73
2022-07-25T21:38:43.227Z,16.75
2022-07-25T21:41:10.404Z,16.77
2022-07-25T21:43:37.464Z,16.81
2022-07-25T21:46:04.441Z,16.86
2022-07-25T21:48:49.899Z,17.15
2022-07-25T21:51:19.158Z,17.16
2022-07-25T21:53:53.541Z,17.20
2022-07-25T21:56:20.985Z,17.30
2022-07-25T21:58:47.854Z,17.38
2022-07-25T22:01:15.094Z,17.48
2022-07-25T22:03:44.689Z,17.51
2022-07-25T22:06:11.810Z,17.50
2022-07-25T22:08:39.682Z,17.46
2022-07-25T22:11:16.036Z,17.43
2022-07-25T22:13:53.367Z,17.40
2022-07-25T22:16:21.685Z,17.42
2022-07-25T22:18:48.813Z,17.47
2022-07-25T22:21:15.948Z,17.47
2022-07-25T22:23:46.514Z,17.48
2022-07-25T22:26:13.586Z,17.58
2022-07-25T22:28:40.739Z,17.61
2022-07-25T22:31:08.430Z,17.58
2022-07-25T22:33:35.592Z,17.67
2022-07-25T22:36:05.767Z,17.71
2022-07-25T22:38:32.895Z,17.68
2022-07-25T22:41:02.965Z,17.87
2022-07-25T22:43:56.775Z,17.88
2022-07-25T22:46:17.482Z,18.04
2022-07-25T22:48:44.437Z,17.95
2022-07-25T22:51:13.152Z,17.88
2022-07-25T22:53:40.203Z,17.61
2022-07-25T22:56:07.126Z,17.80
2022-07-25T22:58:34.085Z,17.60
2022-07-25T23:01:01.068Z,17.56
2022-07-25T23:03:30.782Z,17.58
2022-07-25T23:06:01.799Z,17.56
2022-07-25T23:08:29.094Z,17.53
2022-07-25T23:10:59.003Z,17.45
2022-07-25T23:13:26.360Z,17.36
2022-07-25T23:15:53.426Z,17.30
2022-07-25T23:18:21.478Z,17.26
2022-07-25T23:20:48.641Z,17.26
2022-07-25T23:23:15.934Z,17.14
2022-07-25T23:25:43.036Z,17.13
2022-07-25T23:28:10.187Z,17.09
2022-07-25T23:30:40.457Z,17.08
2022-07-25T23:33:08.284Z,17.14
2022-07-25T23:35:35.912Z,17.16
2022-07-25T23:38:04.012Z,17.20
2022-07-25T23:40:31.063Z,17.01
2022-07-25T23:42:58.171Z,16.98
2022-07-25T23:45:27.546Z,16.95
2022-07-25T23:47:55.440Z,16.97
2022-07-25T23:50:23.053Z,16.95
2022-07-25T23:52:50.066Z,16.98
2022-07-25T23:55:16.986Z,17.09
2022-07-25T23:57:44.097Z,17.05
